Time;durP1;ratioP1;P1;durP2;ratioP2;P2;SDS_P1;SDS_P2;PMS_P1;PMS_P2;Temp;Humidity;BMP_temperature;BMP_pressure;BME280_temperature;BME280_humidity;BME280_pressure;Samples;Min_cycle;Max_cycle;Signal;HPM_P1;HPM_P2
2021/01/13 00:00:08;;;;;;;10.23;1.42;;;4.30;99.00;;;;;;5055964;28;20036;-70
2021/01/13 00:02:34;;;;;;;17.30;1.75;;;4.30;98.90;;;;;;5053909;28;20069;-69
2021/01/13 00:05:00;;;;;;;12.32;1.65;;;4.30;99.00;;;;;;5066802;28;20069;-70
2021/01/13 00:07:25;;;;;;;10.20;1.55;;;4.30;99.00;;;;;;5073880;28;20033;-69
2021/01/13 00:09:51;;;;;;;10.27;2.03;;;4.20;99.20;;;;;;5073645;28;20350;-70
2021/01/13 00:12:17;;;;;;;15.32;2.90;;;4.20;99.10;;;;;;5075445;28;20046;-69
2021/01/13 00:14:43;;;;;;;11.13;1.55;;;4.20;99.20;;;;;;5073746;28;20040;-69
2021/01/13 00:17:09;;;;;;;10.85;1.70;;;4.10;99.30;;;;;;5074062;28;20544;-70
2021/01/13 00:19:35;;;;;;;9.73;2.13;;;4.10;99.40;;;;;;5072766;28;20442;-69
2021/01/13 00:22:01;;;;;;;15.10;1.80;;;4.10;99.40;;;;;;5073950;28;20044;-69
2021/01/13 00:24:27;;;;;;;14.68;2.05;;;4.10;99.40;;;;;;5073628;28;20021;-70
2021/01/13 00:26:57;;;;;;;7.05;1.60;;;4.10;99.50;;;;;;5075591;28;20024;-69
2021/01/13 00:29:23;;;;;;;8.50;1.70;;;4.10;99.60;;;;;;5073414;28;20028;-70
2021/01/13 00:31:48;;;;;;;9.27;2.13;;;4.10;99.60;;;;;;5073803;28;20059;-70
2021/01/13 00:34:15;;;;;;;13.07;2.00;;;4.00;99.70;;;;;;5072280;28;20040;-69
2021/01/13 00:36:41;;;;;;;16.50;2.10;;;4.00;99.60;;;;;;5070953;28;20067;-69
2021/01/13 00:39:07;;;;;;;20.55;2.35;;;4.00;99.70;;;;;;5074732;28;20106;-69
2021/01/13 00:41:37;;;;;;;19.35;2.58;;;3.90;99.70;;;;;;5073519;28;20040;-69
2021/01/13 00:44:03;;;;;;;11.40;1.70;;;4.00;99.70;;;;;;5073078;28;20055;-70
2021/01/13 00:46:38;;;;;;;16.20;1.75;;;4.00;99.70;;;;;;5072801;28;20049;-69
2021/01/13 00:49:05;;;;;;;16.73;2.45;;;4.00;99.70;;;;;;5073219;28;20374;-70
2021/01/13 00:51:41;;;;;;;14.20;1.90;;;4.00;99.90;;;;;;5072872;28;20025;-69
2021/01/13 00:54:08;;;;;;;7.13;1.60;;;4.10;99.80;;;;;;5074670;28;20074;-69
2021/01/13 00:56:37;;;;;;;7.00;1.65;;;4.10;99.60;;;;;;5073050;28;20045;-70
2021/01/13 00:59:03;;;;;;;11.07;1.40;;;4.10;99.70;;;;;;5073107;28;20029;-70
2021/01/13 01:01:29;;;;;;;14.05;1.92;;;4.10;99.60;;;;;;5072644;28;20086;-69
2021/01/13 01:03:55;;;;;;;13.02;1.73;;;4.10;99.70;;;;;;5072581;28;20401;-69
2021/01/13 01:06:22;;;;;;;7.88;1.73;;;4.00;99.80;;;;;;5074374;28;20522;-69
2021/01/13 01:08:48;;;;;;;13.05;1.92;;;4.00;99.80;;;;;;5071794;28;20037;-69
2021/01/13 01:11:43;;;;;;;13.32;1.85;;;4.10;99.80;;;;;;5072808;28;20040;-69
2021/01/13 01:14:11;;;;;;;11.80;1.55;;;4.00;99.70;;;;;;5068011;28;20028;-69
2021/01/13 01:16:43;;;;;;;17.02;2.25;;;4.10;99.70;;;;;;5072460;28;20032;-71
2021/01/13 01:19:10;;;;;;;9.63;2.67;;;4.00;99.60;;;;;;5072434;28;20555;-70
2021/01/13 01:21:40;;;;;;;14.48;2.05;;;4.00;99.90;;;;;;5072704;28;20115;-70
2021/01/13 01:24:07;;;;;;;8.75;1.60;;;4.00;99.80;;;;;;5074066;28;20020;-69
2021/01/13 01:26:32;;;;;;;11.38;1.45;;;4.00;99.90;;;;;;5072312;28;20045;-70
2021/01/13 01:28:58;;;;;;;8.55;1.83;;;4.00;99.90;;;;;;5072512;28;20032;-69
2021/01/13 01:31:24;;;;;;;10.23;1.45;;;4.00;99.80;;;;;;5072275;28;20044;-69
2021/01/13 01:33:49;;;;;;;4.82;1.48;;;4.00;99.90;;;;;;5072150;28;20363;-70
2021/01/13 01:36:16;;;;;;;11.07;2.08;;;3.90;99.90;;;;;;5074033;28;20401;-70
2021/01/13 01:38:44;;;;;;;10.25;1.73;;;3.90;99.80;;;;;;5071060;28;20049;-69
2021/01/13 01:41:15;;;;;;;8.07;1.70;;;4.00;99.90;;;;;;5057074;28;20441;-69
2021/01/13 01:43:43;;;;;;;11.82;1.75;;;4.00;99.80;;;;;;5052100;28;20356;-69
2021/01/13 01:46:09;;;;;;;16.30;2.20;;;4.10;99.70;;;;;;5058074;28;20116;-70
2021/01/13 01:48:53;;;;;;;9.57;1.35;;;4.00;99.60;;;;;;5071648;28;20108;-69
2021/01/13 01:51:32;;;;;;;10.25;2.08;;;4.00;99.70;;;;;;5072252;28;20032;-69
2021/01/13 01:54:16;;;;;;;17.10;1.67;;;3.90;99.60;;;;;;5072471;28;20066;-69
2021/01/13 01:56:43;;;;;;;17.08;1.63;;;4.00;99.40;;;;;;5070733;28;20028;-69
2021/01/13 01:59:14;;;;;;;11.23;1.63;;;4.10;99.50;;;;;;5071596;28;20083;-69
2021/01/13 02:01:44;;;;;;;13.70;2.10;;;4.10;99.30;;;;;;5071934;28;20049;-69
2021/01/13 02:04:28;;;;;;;10.75;1.55;;;4.10;99.30;;;;;;5071807;28;20111;-70
2021/01/13 02:06:59;;;;;;;9.70;1.35;;;4.00;99.30;;;;;;5071729;28;20103;-69
2021/01/13 02:09:26;;;;;;;13.90;2.42;;;4.00;99.50;;;;;;5073375;28;20421;-69
2021/01/13 02:11:54;;;;;;;8.50;1.75;;;4.00;99.40;;;;;;5071914;28;20044;-69
2021/01/13 02:14:20;;;;;;;12.05;1.45;;;4.00;99.30;;;;;;5071714;28;20405;-69
2021/01/13 02:16:53;;;;;;;10.40;1.42;;;4.00;99.40;;;;;;5071544;28;20069;-69
2021/01/13 02:19:44;;;;;;;17.63;1.48;;;4.10;99.40;;;;;;5071843;28;20024;-68
2021/01/13 02:22:12;;;;;;;13.60;2.25;;;4.00;99.40;;;;;;5070704;28;20029;-69
2021/01/13 02:24:53;;;;;;;9.35;1.70;;;4.10;99.30;;;;;;5071202;28;20430;-70
2021/01/13 02:27:44;;;;;;;9.50;1.55;;;4.10;99.30;;;;;;5073088;28;20059;-69
2021/01/13 02:30:15;;;;;;;11.35;1.23;;;4.10;99.20;;;;;;5071751;28;20036;-69
2021/01/13 02:32:47;;;;;;;12.63;2.05;;;4.10;99.20;;;;;;5071567;28;20118;-69
2021/01/13 02:35:20;;;;;;;11.90;1.55;;;4.10;99.20;;;;;;5071531;28;20047;-69
2021/01/13 02:38:04;;;;;;;14.45;1.45;;;4.10;99.20;;;;;;5071304;28;20112;-69
2021/01/13 02:40:31;;;;;;;6.75;1.15;;;4.10;99.20;;;;;;5071638;28;20413;-70
2021/01/13 02:43:02;;;;;;;6.57;1.40;;;4.10;99.30;;;;;;5071235;28;20466;-71
2021/01/13 02:45:31;;;;;;;15.48;1.92;;;4.10;99.30;;;;;;5071465;28;20044;-69
2021/01/13 02:48:03;;;;;;;9.45;1.27;;;4.00;99.20;;;;;;5073129;28;20016;-69
2021/01/13 02:50:31;;;;;;;11.88;1.70;;;4.10;99.20;;;;;;5070178;28;20046;-68
2021/01/13 02:53:14;;;;;;;10.07;1.50;;;4.10;99.20;;;;;;5071608;28;20037;-69
2021/01/13 02:55:46;;;;;;;12.27;1.77;;;4.10;99.10;;;;;;5070361;28;20028;-69
2021/01/13 02:58:13;;;;;;;6.70;1.38;;;4.00;99.30;;;;;;5071302;28;20477;-69
2021/01/13 03:00:39;;;;;;;8.38;1.88;;;4.10;99.30;;;;;;5073270;28;20040;-68
2021/01/13 03:03:06;;;;;;;12.38;1.60;;;4.10;99.20;;;;;;5076676;28;20033;-69
2021/01/13 03:05:32;;;;;;;6.88;1.25;;;4.00;99.00;;;;;;5075215;28;20125;-68
2021/01/13 03:08:00;;;;;;;11.65;1.83;;;4.10;99.10;;;;;;5074947;28;20032;-69
2021/01/13 03:10:27;;;;;;;12.05;1.75;;;4.00;99.00;;;;;;5074837;28;20094;-69
2021/01/13 03:13:04;;;;;;;9.85;1.48;;;4.00;99.00;;;;;;5074805;28;20105;-70
2021/01/13 03:15:31;;;;;;;14.43;1.97;;;4.10;99.00;;;;;;5074619;28;20043;-69
2021/01/13 03:18:09;;;;;;;13.48;1.92;;;4.10;99.00;;;;;;5076773;28;20072;-69
2021/01/13 03:21:08;;;;;;;14.52;1.45;;;4.10;99.00;;;;;;5073925;28;20044;-68
2021/01/13 03:23:40;;;;;;;11.63;1.52;;;4.20;99.00;;;;;;5074737;28;20056;-69
2021/01/13 03:26:08;;;;;;;14.55;1.95;;;4.10;99.00;;;;;;5074599;28;20040;-69
2021/01/13 03:28:40;;;;;;;14.05;2.05;;;4.20;99.10;;;;;;5074982;28;20039;-68
2021/01/13 03:31:08;;;;;;;13.65;1.80;;;4.20;99.10;;;;;;5074409;28;20036;-68
2021/01/13 03:34:10;;;;;;;14.02;1.83;;;4.30;99.30;;;;;;5074904;28;20028;-69
2021/01/13 03:37:13;;;;;;;14.43;1.88;;;4.30;99.00;;;;;;5074125;28;20040;-68
2021/01/13 03:39:39;;;;;;;15.52;1.50;;;4.30;98.90;;;;;;5074232;28;20056;-68
2021/01/13 03:42:13;;;;;;;20.52;2.22;;;4.40;98.80;;;;;;5075916;28;20020;-69
2021/01/13 03:44:42;;;;;;;17.27;1.80;;;4.40;98.90;;;;;;5073264;28;20055;-69
2021/01/13 03:47:30;;;;;;;11.75;1.65;;;4.30;98.90;;;;;;5074201;28;20115;-68
2021/01/13 03:50:10;;;;;;;11.18;1.52;;;4.40;98.90;;;;;;5073882;28;20450;-69
2021/01/13 03:52:59;;;;;;;16.40;1.63;;;4.30;98.80;;;;;;5074132;28;20028;-70
2021/01/13 03:55:30;;;;;;;9.10;1.35;;;4.40;98.90;;;;;;5073038;28;20032;-69
2021/01/13 03:58:08;;;;;;;13.07;1.77;;;4.30;98.80;;;;;;5074323;28;20032;-70
2021/01/13 04:00:59;;;;;;;13.15;1.83;;;4.30;98.80;;;;;;5074046;28;20362;-68
2021/01/13 04:03:25;;;;;;;13.55;1.92;;;4.40;98.80;;;;;;5075398;28;20025;-69
2021/01/13 04:06:11;;;;;;;12.20;1.92;;;4.30;98.80;;;;;;5073503;28;20135;-69
2021/01/13 04:08:41;;;;;;;20.02;2.20;;;4.30;99.00;;;;;;5073894;28;20459;-70
2021/01/13 04:11:18;;;;;;;12.85;1.75;;;4.40;98.90;;;;;;5072682;28;20083;-69
2021/01/13 04:13:46;;;;;;;18.33;1.77;;;4.30;98.90;;;;;;5073800;28;20040;-70
2021/01/13 04:16:12;;;;;;;;;;;4.40;98.80;;;;;;5073993;28;20036;-69
2021/01/13 04:18:39;;;;;;;12.57;1.95;;;4.50;98.80;;;;;;5073401;28;20350;-68
2021/01/13 04:21:07;;;;;;;21.48;2.03;;;4.50;98.80;;;;;;5075270;28;20413;-70
2021/01/13 04:23:33;;;;;;;13.43;1.83;;;4.50;98.80;;;;;;5072789;28;20044;-69
2021/01/13 04:26:00;;;;;;;9.85;1.13;;;4.40;98.90;;;;;;5073520;28;20044;-70
2021/01/13 04:28:27;;;;;;;15.77;1.95;;;4.40;99.00;;;;;;5073556;28;20059;-70
2021/01/13 04:30:56;;;;;;;13.27;2.42;;;4.40;99.10;;;;;;5073580;28;20032;-70
2021/01/13 04:33:23;;;;;;;14.40;2.30;;;4.40;99.10;;;;;;5075053;28;20485;-70
2021/01/13 04:35:51;;;;;;;11.07;1.37;;;4.50;99.30;;;;;;5073561;28;20409;-69
2021/01/13 04:38:27;;;;;;;15.75;1.85;;;4.40;99.40;;;;;;5073393;28;20052;-69
2021/01/13 04:41:07;;;;;;;10.93;1.55;;;4.50;99.40;;;;;;5073236;28;20032;-69
2021/01/13 04:43:57;;;;;;;20.85;2.38;;;4.40;99.60;;;;;;5073329;28;20430;-70
2021/01/13 04:46:33;;;;;;;14.75;1.73;;;4.30;99.50;;;;;;5072970;28;20029;-70
2021/01/13 04:49:01;;;;;;;13.55;1.52;;;4.30;99.80;;;;;;5073154;28;20066;-69
2021/01/13 04:51:28;;;;;;;14.07;1.67;;;4.20;99.80;;;;;;5073094;28;20029;-69
2021/01/13 04:53:55;;;;;;;10.98;1.65;;;4.20;99.80;;;;;;5074646;28;20016;-70
2021/01/13 04:56:24;;;;;;;12.23;2.45;;;4.30;99.80;;;;;;5072654;28;20071;-69
2021/01/13 04:59:12;;;;;;;12.90;2.17;;;4.30;99.70;;;;;;5072113;28;20086;-69
2021/01/13 05:02:06;;;;;;;12.15;2.05;;;4.40;99.60;;;;;;5072747;28;20107;-70
2021/01/13 05:04:59;;;;;;;12.82;1.77;;;4.40;99.60;;;;;;5063865;28;20029;-69
2021/01/13 05:07:37;;;;;;;25.02;1.77;;;4.40;99.50;;;;;;5052751;28;20044;-69
2021/01/13 05:10:03;;;;;;;12.25;1.58;;;4.40;99.50;;;;;;5053071;28;20029;-72
2021/01/13 05:12:48;;;;;;;16.38;1.73;;;4.50;99.40;;;;;;5052741;28;20090;-69
2021/01/13 05:15:18;;;;;;;16.08;2.33;;;4.40;99.40;;;;;;5074234;28;20055;-69
2021/01/13 05:17:58;;;;;;;16.58;1.85;;;4.50;99.40;;;;;;5072330;28;20036;-69
2021/01/13 05:20:27;;;;;;;9.15;1.50;;;4.40;99.30;;;;;;5071333;28;20386;-69
2021/01/13 05:22:54;;;;;;;12.95;1.67;;;4.50;99.40;;;;;;5072268;28;20065;-69
2021/01/13 05:25:37;;;;;;;10.98;1.58;;;4.50;99.40;;;;;;5072496;28;20174;-70
2021/01/13 05:28:26;;;;;;;13.05;1.38;;;4.50;99.40;;;;;;5072318;28;20024;-71
2021/01/13 05:30:56;;;;;;;15.00;2.15;;;4.50;99.30;;;;;;5072126;28;20408;-70
2021/01/13 05:33:30;;;;;;;17.17;1.70;;;4.60;99.40;;;;;;5073622;28;20443;-69
2021/01/13 05:36:01;;;;;;;13.15;1.67;;;4.60;99.40;;;;;;5072196;28;20029;-70
2021/01/13 05:39:11;;;;;;;16.33;2.17;;;4.60;99.50;;;;;;5054115;28;20052;-70
2021/01/13 05:41:41;;;;;;;10.10;1.80;;;4.50;99.70;;;;;;5052274;28;20033;-70
2021/01/13 05:44:08;;;;;;;10.55;1.92;;;4.50;99.90;;;;;;5050746;28;20029;-70
2021/01/13 05:46:47;;;;;;;15.90;2.70;;;4.50;99.90;;;;;;5052123;28;20459;-70
2021/01/13 05:49:14;;;;;;;11.50;1.95;;;4.50;99.90;;;;;;5051778;28;20059;-69
2021/01/13 05:51:41;;;;;;;13.00;1.80;;;4.50;99.80;;;;;;5049887;28;20103;-71
2021/01/13 05:54:15;;;;;;;14.77;2.15;;;4.60;99.80;;;;;;5052683;28;20029;-69
2021/01/13 05:56:41;;;;;;;8.02;1.48;;;4.50;99.90;;;;;;5051937;28;20048;-71
2021/01/13 05:59:09;;;;;;;12.63;1.98;;;4.60;99.90;;;;;;5064900;28;20385;-70
2021/01/13 06:02:02;;;;;;;17.60;2.35;;;4.50;99.90;;;;;;5071918;28;20077;-70
2021/01/13 06:04:28;;;;;;;19.92;1.98;;;4.50;99.90;;;;;;5071722;28;20052;-70
2021/01/13 06:07:23;;;;;;;17.63;2.60;;;4.60;99.90;;;;;;5071740;28;20081;-69
2021/01/13 06:09:56;;;;;;;12.48;1.60;;;4.70;99.90;;;;;;5070673;28;20024;-70
2021/01/13 06:12:23;;;;;;;14.35;1.55;;;4.60;99.90;;;;;;5073232;28;20028;-70
2021/01/13 06:14:53;;;;;;;13.32;2.15;;;4.60;99.80;;;;;;5071853;28;20029;-71
2021/01/13 06:17:24;;;;;;;14.32;2.47;;;4.60;99.90;;;;;;5071563;28;20547;-71
2021/01/13 06:19:54;;;;;;;19.08;1.77;;;4.60;99.90;;;;;;5070104;28;20131;-71
2021/01/13 06:22:31;;;;;;;12.85;1.50;;;4.70;99.90;;;;;;5071273;28;20040;-69
2021/01/13 06:25:04;;;;;;;18.03;1.93;;;4.70;99.90;;;;;;5070491;28;20041;-71
2021/01/13 06:27:58;;;;;;;10.15;1.55;;;4.60;99.90;;;;;;5070310;28;20024;-70
2021/01/13 06:30:29;;;;;;;7.97;1.80;;;4.70;99.90;;;;;;5072810;28;20105;-70
2021/01/13 06:33:09;;;;;;;15.68;1.77;;;4.70;99.90;;;;;;5071551;28;20042;-70
2021/01/13 06:35:43;;;;;;;14.30;1.90;;;4.70;99.90;;;;;;5073556;28;20042;-70
2021/01/13 06:38:16;;;;;;;14.10;2.00;;;4.80;99.90;;;;;;5074189;28;20053;-71
2021/01/13 06:40:42;;;;;;;8.50;1.80;;;4.80;99.90;;;;;;5075250;28;20033;-70
2021/01/13 06:43:11;;;;;;;12.88;2.05;;;4.80;99.90;;;;;;5074431;28;20032;-70
2021/01/13 06:45:37;;;;;;;12.65;2.00;;;4.80;99.90;;;;;;5075502;28;20032;-71
2021/01/13 06:48:03;;;;;;;18.08;1.75;;;4.80;99.90;;;;;;5076924;28;20021;-70
2021/01/13 06:50:30;;;;;;;15.82;2.40;;;4.80;99.90;;;;;;5074844;28;20131;-70
2021/01/13 06:52:58;;;;;;;11.68;1.65;;;4.80;99.90;;;;;;5075306;28;20119;-70
2021/01/13 06:55:33;;;;;;;;;;;4.70;99.90;;;;;;5074407;28;20029;-70
2021/01/13 06:58:18;;;;;;;13.35;1.98;;;4.70;99.90;;;;;;5075288;28;19920;-70
2021/01/13 07:00:59;;;;;;;5.18;1.58;;;4.70;99.90;;;;;;5074819;28;20029;-70
2021/01/13 07:03:29;;;;;;;12.48;1.60;;;4.70;99.90;;;;;;5076807;28;20054;-71
2021/01/13 07:06:07;;;;;;;15.48;2.35;;;4.80;99.90;;;;;;5075258;28;20048;-72
2021/01/13 07:08:33;;;;;;;17.83;2.05;;;4.70;99.90;;;;;;5073482;28;20070;-70
2021/01/13 07:11:07;;;;;;;10.40;1.95;;;4.70;99.90;;;;;;5074975;28;20051;-70
2021/01/13 07:13:37;;;;;;;9.40;1.30;;;4.60;99.90;;;;;;5075056;28;20036;-71
2021/01/13 07:16:04;;;;;;;21.42;2.40;;;4.70;99.90;;;;;;5075118;28;20108;-71
2021/01/13 07:18:31;;;;;;;12.27;1.73;;;4.70;99.90;;;;;;5074600;28;20104;-70
2021/01/13 07:21:06;;;;;;;10.57;2.15;;;4.70;99.90;;;;;;5076394;28;20039;-70
2021/01/13 07:23:33;;;;;;;12.02;1.65;;;4.80;99.90;;;;;;5074717;28;20550;-70
2021/01/13 07:26:00;;;;;;;13.45;1.60;;;4.70;99.90;;;;;;5074654;28;20518;-69
2021/01/13 07:28:26;;;;;;;16.92;2.17;;;4.70;99.90;;;;;;5073332;28;20067;-69
2021/01/13 07:30:54;;;;;;;10.65;1.35;;;4.80;99.90;;;;;;5074753;28;20036;-69
2021/01/13 07:33:20;;;;;;;8.52;1.55;;;4.80;99.90;;;;;;5076068;28;20024;-69
2021/01/13 07:35:47;;;;;;;13.88;1.60;;;4.80;99.90;;;;;;5073327;28;20189;-69
2021/01/13 07:38:18;;;;;;;12.55;1.80;;;4.80;99.90;;;;;;5073221;28;20056;-76
2021/01/13 07:41:07;;;;;;;8.68;1.65;;;4.80;99.90;;;;;;5063927;28;20043;-75
2021/01/13 07:43:51;;;;;;;19.10;2.10;;;4.90;99.90;;;;;;5054005;28;20378;-70
2021/01/13 07:46:28;;;;;;;19.48;3.03;;;5.00;99.90;;;;;;5053733;28;20040;-72
2021/01/13 07:49:20;;;;;;;11.27;2.05;;;5.00;99.90;;;;;;5054299;28;20397;-69
2021/01/13 07:51:48;;;;;;;9.85;1.80;;;4.90;99.90;;;;;;5054235;28;20568;-77
2021/01/13 07:54:28;;;;;;;13.48;2.35;;;5.00;99.90;;;;;;5054826;28;20074;-70
2021/01/13 07:57:01;;;;;;;11.93;1.65;;;5.00;99.90;;;;;;5074503;28;20048;-68
2021/01/13 07:59:41;;;;;;;12.57;1.92;;;5.00;99.90;;;;;;5074116;28;20065;-71
2021/01/13 08:02:44;;;;;;;7.93;1.23;;;4.90;99.90;;;;;;5074071;28;20037;-70
2021/01/13 08:05:31;;;;;;;12.48;1.63;;;4.90;99.90;;;;;;5073928;28;20029;-69
2021/01/13 08:08:07;;;;;;;10.00;1.70;;;4.90;99.90;;;;;;5072721;28;20033;-68
2021/01/13 08:10:36;;;;;;;6.63;1.42;;;5.00;99.90;;;;;;5073754;28;20033;-69
2021/01/13 08:13:13;;;;;;;7.90;1.08;;;5.10;99.90;;;;;;5073840;28;20038;-70
2021/01/13 08:16:18;;;;;;;13.45;2.08;;;5.10;99.90;;;;;;5073681;28;20516;-69
2021/01/13 08:19:20;;;;;;;8.35;1.80;;;5.00;99.90;;;;;;5049411;28;20021;-69
2021/01/13 08:22:04;;;;;;;6.45;1.52;;;5.10;99.90;;;;;;5031428;28;20029;-70
2021/01/13 08:24:30;;;;;;;6.78;1.65;;;5.10;99.90;;;;;;5050111;28;20037;-68
2021/01/13 08:27:01;;;;;;;10.07;1.63;;;5.10;99.90;;;;;;5055039;28;20017;-70
2021/01/13 08:29:36;;;;;;;7.88;1.58;;;5.10;99.90;;;;;;5053667;28;20029;-70
2021/01/13 08:32:12;;;;;;;9.48;1.42;;;5.10;99.90;;;;;;5053244;28;20075;-70
2021/01/13 08:34:46;;;;;;;11.68;1.63;;;5.20;99.90;;;;;;5052400;28;20382;-72
2021/01/13 08:37:13;;;;;;;13.35;1.70;;;5.30;99.90;;;;;;5053056;28;20047;-76
2021/01/13 08:39:42;;;;;;;5.97;1.45;;;5.20;99.90;;;;;;5053354;28;20110;-71
2021/01/13 08:42:22;;;;;;;7.32;1.63;;;5.20;99.80;;;;;;5053810;28;20097;-69
2021/01/13 08:44:50;;;;;;;10.07;1.77;;;5.10;99.70;;;;;;5053154;28;20033;-71
2021/01/13 08:47:16;;;;;;;11.13;2.63;;;5.20;99.80;;;;;;5053396;28;20037;-69
2021/01/13 08:49:43;;;;;;;8.65;1.60;;;5.20;99.80;;;;;;5053439;28;20070;-83
2021/01/13 08:52:18;;;;;;;9.75;2.00;;;5.30;99.90;;;;;;5053171;28;20455;-72
2021/01/13 08:55:04;;;;;;;9.95;2.22;;;5.40;99.90;;;;;;5055534;28;20033;-74
2021/01/13 08:58:03;;;;;;;7.70;1.52;;;5.40;99.90;;;;;;5071669;28;20052;-78
2021/01/13 09:00:30;;;;;;;10.18;1.77;;;5.40;99.70;;;;;;5053360;28;20021;-80
2021/01/13 09:03:03;;;;;;;12.32;2.58;;;5.50;99.70;;;;;;5075004;28;20028;-76
2021/01/13 09:05:34;;;;;;;7.95;1.58;;;5.50;99.70;;;;;;5068926;28;20094;-79
2021/01/13 09:08:02;;;;;;;9.55;1.67;;;5.50;99.70;;;;;;5073047;28;20429;-77
2021/01/13 09:10:50;;;;;;;10.57;1.75;;;5.50;99.70;;;;;;5071778;28;20036;-77
2021/01/13 09:13:30;;;;;;;8.13;1.70;;;5.40;99.70;;;;;;5070579;28;20359;-78
2021/01/13 09:15:57;;;;;;;12.23;2.38;;;5.50;99.80;;;;;;5071011;28;20111;-81
2021/01/13 09:18:23;;;;;;;9.05;1.88;;;5.70;99.80;;;;;;5074361;28;20055;-79
2021/01/13 09:20:50;;;;;;;11.90;2.53;;;5.60;99.50;;;;;;5073154;28;20043;-81
2021/01/13 09:23:25;;;;;;;15.23;2.03;;;5.50;99.60;;;;;;5072233;28;20396;-71
2021/01/13 09:25:56;;;;;;;7.70;1.60;;;5.60;99.70;;;;;;5072448;28;20036;-72
2021/01/13 09:28:22;;;;;;;6.10;1.30;;;5.60;99.50;;;;;;5072078;28;20112;-70
2021/01/13 09:30:48;;;;;;;5.85;1.23;;;5.50;99.60;;;;;;5071430;28;20063;-71
2021/01/13 09:33:19;;;;;;;6.97;1.70;;;5.50;99.60;;;;;;5074202;28;20029;-73
2021/01/13 09:35:57;;;;;;;10.35;1.33;;;5.50;99.70;;;;;;5071883;28;20040;-80
2021/01/13 09:38:30;;;;;;;7.28;1.70;;;5.40;99.70;;;;;;5072185;28;20072;-72
2021/01/13 09:41:01;;;;;;;8.68;1.70;;;5.50;99.80;;;;;;5071833;28;20477;-72
2021/01/13 09:43:38;;;;;;;8.32;1.52;;;5.50;99.70;;;;;;5072094;28;20025;-70
2021/01/13 09:46:07;;;;;;;6.90;1.40;;;5.40;99.80;;;;;;5072110;28;20133;-71
2021/01/13 09:48:35;;;;;;;7.38;1.58;;;5.40;99.90;;;;;;5071516;28;20099;-71
2021/01/13 09:51:01;;;;;;;7.63;1.45;;;5.40;99.90;;;;;;5073656;28;20020;-73
2021/01/13 09:53:34;;;;;;;7.18;1.70;;;5.50;99.90;;;;;;5071082;28;20066;-72
2021/01/13 09:56:07;;;;;;;8.77;1.65;;;5.40;99.90;;;;;;5071533;28;20060;-73
2021/01/13 09:58:37;;;;;;;5.10;1.20;;;5.50;99.90;;;;;;5071706;28;20119;-72
2021/01/13 10:01:15;;;;;;;8.27;1.73;;;5.60;99.90;;;;;;5070644;28;20025;-72
2021/01/13 10:03:45;;;;;;;7.75;2.10;;;5.50;99.90;;;;;;5071843;28;20051;-73
2021/01/13 10:06:12;;;;;;;8.15;1.92;;;5.60;99.80;;;;;;5073397;28;20451;-72
2021/01/13 10:08:38;;;;;;;8.63;1.80;;;5.60;99.80;;;;;;5052395;28;20065;-71
2021/01/13 10:11:04;;;;;;;14.57;2.10;;;5.50;99.90;;;;;;5050502;28;20485;-72
2021/01/13 10:13:30;;;;;;;2.88;1.40;;;5.50;99.80;;;;;;5051899;28;20029;-72
2021/01/13 10:16:00;;;;;;;9.48;1.92;;;5.50;99.90;;;;;;5051314;28;20102;-73
2021/01/13 10:18:27;;;;;;;4.82;1.65;;;5.50;99.90;;;;;;5051478;28;20046;-70
2021/01/13 10:20:55;;;;;;;7.25;2.10;;;5.60;99.90;;;;;;5073227;28;20016;-73
2021/01/13 10:23:29;;;;;;;8.43;2.08;;;5.70;99.90;;;;;;5070208;28;20076;-72
2021/01/13 10:26:06;;;;;;;10.73;2.95;;;5.70;99.80;;;;;;5070725;28;20055;-74
2021/01/13 10:28:32;;;;;;;12.00;1.85;;;6.00;99.90;;;;;;5071779;28;20474;-77
2021/01/13 10:30:58;;;;;;;7.15;1.60;;;5.80;99.50;;;;;;5071572;28;20039;-74
2021/01/13 10:33:47;;;;;;;7.38;1.50;;;5.80;99.60;;;;;;5073010;28;20425;-73
2021/01/13 10:36:35;;;;;;;8.00;1.80;;;5.80;99.50;;;;;;5072043;28;20466;-72
2021/01/13 10:39:03;;;;;;;8.20;2.00;;;5.90;99.60;;;;;;5071126;28;20049;-71
2021/01/13 10:41:34;;;;;;;10.82;2.25;;;5.90;99.40;;;;;;5070368;28;20036;-72
2021/01/13 10:44:15;;;;;;;8.88;1.77;;;5.90;99.20;;;;;;5070847;28;20060;-71
2021/01/13 10:46:41;;;;;;;8.55;2.00;;;5.90;99.20;;;;;;5071318;28;20044;-71
2021/01/13 10:49:14;;;;;;;9.77;1.58;;;5.70;99.20;;;;;;5071128;28;20509;-72
2021/01/13 10:51:47;;;;;;;12.93;2.33;;;5.80;99.20;;;;;;5068435;28;20063;-73
2021/01/13 10:54:18;;;;;;;8.68;1.58;;;5.80;99.00;;;;;;5052734;28;20017;-72
2021/01/13 10:56:45;;;;;;;8.88;1.60;;;5.80;99.00;;;;;;5051218;28;20091;-72
2021/01/13 10:59:15;;;;;;;20.95;2.00;;;5.80;99.20;;;;;;5051047;28;20148;-73
2021/01/13 11:01:45;;;;;;;13.75;1.83;;;6.00;98.90;;;;;;5060479;28;20033;-71
2021/01/13 11:04:28;;;;;;;25.25;2.67;;;5.90;98.80;;;;;;5071195;28;20048;-71
2021/01/13 11:07:17;;;;;;;14.95;2.38;;;6.00;98.80;;;;;;5071532;28;20040;-72
2021/01/13 11:09:48;;;;;;;8.00;2.00;;;6.00;98.70;;;;;;5067760;28;20028;-73
2021/01/13 11:12:21;;;;;;;10.05;2.00;;;6.00;98.70;;;;;;5052501;28;20017;-71
2021/01/13 11:14:48;;;;;;;9.30;1.90;;;6.10;98.60;;;;;;5070457;28;20033;-72
2021/01/13 11:17:25;;;;;;;32.35;8.80;;;6.20;98.40;;;;;;5071353;28;20032;-71
2021/01/13 11:19:53;;;;;;;10.48;2.85;;;6.20;98.60;;;;;;5071166;28;20028;-71
2021/01/13 11:22:21;;;;;;;9.43;2.05;;;6.30;98.60;;;;;;5074220;28;20035;-72
2021/01/13 11:24:51;;;;;;;15.13;2.08;;;6.30;98.40;;;;;;5074721;28;20119;-73
2021/01/13 11:27:22;;;;;;;15.93;2.38;;;6.30;98.50;;;;;;5075657;28;20056;-72
2021/01/13 11:29:52;;;;;;;11.20;2.13;;;6.20;98.50;;;;;;5074635;28;20024;-73
2021/01/13 11:32:20;;;;;;;9.30;1.85;;;6.30;98.40;;;;;;5070423;28;20032;-73
2021/01/13 11:34:51;;;;;;;8.55;2.08;;;6.20;98.50;;;;;;5073390;28;20028;-74
2021/01/13 11:37:37;;;;;;;14.27;1.95;;;6.20;98.50;;;;;;5074456;28;20029;-71
2021/01/13 11:40:22;;;;;;;13.32;2.75;;;6.30;98.70;;;;;;5073379;28;20078;-71
2021/01/13 11:42:57;;;;;;;18.25;2.63;;;6.60;98.20;;;;;;5073175;28;20055;-75
2021/01/13 11:45:30;;;;;;;17.10;2.00;;;6.70;97.80;;;;;;5076019;28;20024;-69
2021/01/13 11:48:05;;;;;;;16.75;2.65;;;6.70;97.70;;;;;;5073646;28;20455;-70
2021/01/13 11:50:35;;;;;;;14.82;2.80;;;6.90;97.70;;;;;;5074105;28;20071;-70
2021/01/13 11:53:06;;;;;;;26.80;3.00;;;7.00;97.40;;;;;;5074496;28;20028;-70
2021/01/13 11:55:34;;;;;;;13.90;2.85;;;6.80;97.30;;;;;;5056752;28;20031;-71
2021/01/13 11:58:00;;;;;;;;;;;6.90;97.50;;;;;;5074458;28;20043;-71
2021/01/13 12:00:28;;;;;;;11.48;2.10;;;6.90;97.30;;;;;;5075789;28;19904;-70
2021/01/13 12:02:59;;;;;;;14.05;1.85;;;6.80;97.10;;;;;;5074439;28;20409;-70
2021/01/13 12:05:34;;;;;;;9.15;1.27;;;6.80;97.10;;;;;;5072312;28;20116;-70
2021/01/13 12:08:12;;;;;;;17.23;2.13;;;6.70;97.40;;;;;;5072341;28;20060;-71
2021/01/13 12:10:39;;;;;;;15.90;2.70;;;6.50;97.50;;;;;;5072895;28;20032;-69
2021/01/13 12:13:29;;;;;;;24.50;3.08;;;6.50;97.90;;;;;;5072813;28;20032;-71
2021/01/13 12:15:59;;;;;;;20.95;2.85;;;6.30;98.10;;;;;;5072872;28;20070;-74
2021/01/13 12:18:31;;;;;;;17.90;2.97;;;6.30;98.10;;;;;;5075461;28;20346;-70
2021/01/13 12:21:00;;;;;;;11.50;1.92;;;6.40;98.20;;;;;;5074011;28;20041;-70
2021/01/13 12:23:38;;;;;;;10.38;1.80;;;6.50;97.90;;;;;;5072514;28;20048;-74
2021/01/13 12:26:28;;;;;;;17.45;2.47;;;6.50;97.90;;;;;;5073864;28;20044;-70
2021/01/13 12:29:12;;;;;;;11.63;2.35;;;6.60;97.70;;;;;;5073701;28;20086;-70
2021/01/13 12:31:49;;;;;;;18.13;2.35;;;6.50;97.80;;;;;;5073477;28;20055;-71
2021/01/13 12:34:23;;;;;;;12.57;1.98;;;6.60;97.70;;;;;;5073313;28;20098;-69
2021/01/13 12:36:51;;;;;;;18.73;2.28;;;6.60;97.60;;;;;;5073250;28;20040;-70
2021/01/13 12:39:34;;;;;;;15.32;2.50;;;6.50;97.50;;;;;;5074739;28;20119;-70
2021/01/13 12:42:01;;;;;;;8.00;1.60;;;6.40;97.70;;;;;;5073620;28;20033;-70
2021/01/13 12:44:28;;;;;;;10.07;1.90;;;6.40;97.60;;;;;;5073208;28;20032;-70
2021/01/13 12:46:59;;;;;;;15.85;1.85;;;6.40;97.50;;;;;;5072880;28;20128;-69
2021/01/13 12:49:25;;;;;;;13.40;2.00;;;6.50;97.70;;;;;;5072539;28;20397;-70
2021/01/13 12:51:59;;;;;;;12.63;2.10;;;6.40;97.60;;;;;;5072722;28;20033;-70
2021/01/13 12:54:25;;;;;;;7.97;1.42;;;6.50;97.60;;;;;;5074468;28;20431;-70
2021/01/13 12:56:52;;;;;;;16.27;2.45;;;6.40;97.60;;;;;;5073422;28;20029;-70
2021/01/13 12:59:18;;;;;;;14.90;1.67;;;6.20;97.70;;;;;;5073031;28;20131;-70
2021/01/13 13:01:47;;;;;;;14.77;2.47;;;6.20;97.80;;;;;;5072771;28;20123;-69
2021/01/13 13:04:14;;;;;;;16.38;1.70;;;6.20;97.80;;;;;;5073203;28;20047;-69
2021/01/13 13:06:40;;;;;;;8.75;1.38;;;6.30;98.00;;;;;;5072694;28;20055;-70
2021/01/13 13:09:10;;;;;;;10.38;3.00;;;6.20;97.90;;;;;;5074331;28;20341;-69
2021/01/13 13:11:37;;;;;;;12.20;1.80;;;6.20;97.90;;;;;;5072780;28;20451;-69
2021/01/13 13:14:04;;;;;;;16.38;2.58;;;6.30;97.90;;;;;;5071538;28;20458;-72
2021/01/13 13:16:30;;;;;;;7.45;1.52;;;6.30;97.80;;;;;;5070877;28;20062;-70
2021/01/13 13:18:57;;;;;;;19.35;1.98;;;6.30;97.70;;;;;;5071929;28;20025;-71